sensor_id;sensor_type;location;lat;lon;timestamp;P1;durP1;ratioP1;P2;durP2;ratioP2
1272;SDS011;629;48.632;10.230;2023-01-06T01:16:03;6.00;;;5.40;;
1272;SDS011;629;48.632;10.230;2023-01-06T01:18:19;7.30;;;6.45;;
1272;SDS011;629;48.632;10.230;2023-01-06T01:20:46;7.05;;;6.13;;
1272;SDS011;629;48.632;10.230;2023-01-06T02:06:54;8.00;;;5.95;;
1272;SDS011;629;48.632;10.230;2023-01-06T03:01:30;9.25;;;6.65;;
1272;SDS011;629;48.632;10.230;2023-01-06T03:35:27;10.32;;;4.63;;
1272;SDS011;629;48.632;10.230;2023-01-06T03:38:12;4.93;;;4.43;;
1272;SDS011;629;48.632;10.230;2023-01-06T03:40:49;6.50;;;4.95;;
1272;SDS011;629;48.632;10.230;2023-01-06T04:01:31;7.13;;;5.75;;
1272;SDS011;629;48.632;10.230;2023-01-06T05:08:51;8.65;;;6.97;;
1272;SDS011;629;48.632;10.230;2023-01-06T05:11:18;7.78;;;6.78;;
1272;SDS011;629;48.632;10.230;2023-01-06T05:28:42;7.63;;;6.93;;
1272;SDS011;629;48.632;10.230;2023-01-06T05:31:09;7.53;;;6.82;;
1272;SDS011;629;48.632;10.230;2023-01-06T05:36:12;7.97;;;6.78;;
1272;SDS011;629;48.632;10.230;2023-01-06T05:38:40;7.28;;;6.57;;
1272;SDS011;629;48.632;10.230;2023-01-06T05:41:07;8.45;;;6.53;;
1272;SDS011;629;48.632;10.230;2023-01-06T05:53:59;54.78;;;12.55;;
1272;SDS011;629;48.632;10.230;2023-01-06T05:56:26;73.20;;;14.18;;
1272;SDS011;629;48.632;10.230;2023-01-06T05:58:53;60.80;;;14.80;;
1272;SDS011;629;48.632;10.230;2023-01-06T06:01:21;78.28;;;14.55;;
1272;SDS011;629;48.632;10.230;2023-01-06T06:28:10;82.60;;;15.27;;
1272;SDS011;629;48.632;10.230;2023-01-06T06:30:37;93.75;;;16.95;;
1272;SDS011;629;48.632;10.230;2023-01-06T06:33:04;25.88;;;10.25;;
1272;SDS011;629;48.632;10.230;2023-01-06T07:17:27;30.83;;;9.37;;
1272;SDS011;629;48.632;10.230;2023-01-06T07:19:54;24.33;;;10.17;;
1272;SDS011;629;48.632;10.230;2023-01-06T07:22:21;26.27;;;9.17;;
1272;SDS011;629;48.632;10.230;2023-01-06T07:33:02;27.25;;;9.45;;
1272;SDS011;629;48.632;10.230;2023-01-06T07:56:13;53.73;;;9.60;;
1272;SDS011;629;48.632;10.230;2023-01-06T07:58:40;49.90;;;9.60;;
1272;SDS011;629;48.632;10.230;2023-01-06T08:01:07;36.00;;;8.40;;
1272;SDS011;629;48.632;10.230;2023-01-06T09:21:58;6.27;;;4.33;;
1272;SDS011;629;48.632;10.230;2023-01-06T09:24:25;6.93;;;5.00;;
1272;SDS011;629;48.632;10.230;2023-01-06T09:26:52;8.57;;;6.27;;
1272;SDS011;629;48.632;10.230;2023-01-06T09:29:19;9.30;;;5.88;;
1272;SDS011;629;48.632;10.230;2023-01-06T09:31:46;8.07;;;5.90;;
1272;SDS011;629;48.632;10.230;2023-01-06T09:37:15;9.40;;;6.57;;
1272;SDS011;629;48.632;10.230;2023-01-06T09:39:45;10.07;;;6.53;;
1272;SDS011;629;48.632;10.230;2023-01-06T09:42:22;11.48;;;7.70;;
1272;SDS011;629;48.632;10.230;2023-01-06T09:45:00;10.83;;;7.73;;
1272;SDS011;629;48.632;10.230;2023-01-06T09:47:31;14.50;;;8.30;;
1272;SDS011;629;48.632;10.230;2023-01-06T09:50:04;11.13;;;7.00;;
1272;SDS011;629;48.632;10.230;2023-01-06T09:52:37;10.20;;;6.00;;
1272;SDS011;629;48.632;10.230;2023-01-06T09:57:36;10.37;;;6.70;;
1272;SDS011;629;48.632;10.230;2023-01-06T10:00:06;9.13;;;6.00;;
1272;SDS011;629;48.632;10.230;2023-01-06T10:02:40;7.25;;;5.65;;
1272;SDS011;629;48.632;10.230;2023-01-06T10:05:14;7.47;;;4.87;;
1272;SDS011;629;48.632;10.230;2023-01-06T10:07:48;4.97;;;4.33;;
1272;SDS011;629;48.632;10.230;2023-01-06T10:10:21;5.07;;;4.50;;
1272;SDS011;629;48.632;10.230;2023-01-06T10:13:01;4.63;;;3.70;;
1272;SDS011;629;48.632;10.230;2023-01-06T10:15:38;4.60;;;3.50;;
1272;SDS011;629;48.632;10.230;2023-01-06T10:18:16;5.20;;;4.47;;
1272;SDS011;629;48.632;10.230;2023-01-06T10:20:54;5.47;;;4.33;;
1272;SDS011;629;48.632;10.230;2023-01-06T10:26:08;4.67;;;3.70;;
1272;SDS011;629;48.632;10.230;2023-01-06T10:28:39;6.03;;;4.53;;
1272;SDS011;629;48.632;10.230;2023-01-06T10:31:10;4.07;;;3.50;;
1272;SDS011;629;48.632;10.230;2023-01-06T10:33:39;4.23;;;3.77;;
1272;SDS011;629;48.632;10.230;2023-01-06T10:36:09;3.80;;;3.40;;
1272;SDS011;629;48.632;10.230;2023-01-06T10:38:39;4.20;;;3.07;;
1272;SDS011;629;48.632;10.230;2023-01-06T10:41:10;4.00;;;3.10;;
1272;SDS011;629;48.632;10.230;2023-01-06T10:46:18;3.87;;;3.30;;
1272;SDS011;629;48.632;10.230;2023-01-06T10:48:45;4.17;;;3.30;;
1272;SDS011;629;48.632;10.230;2023-01-06T10:51:33;5.33;;;4.13;;
1272;SDS011;629;48.632;10.230;2023-01-06T10:56:37;3.90;;;3.50;;
1272;SDS011;629;48.632;10.230;2023-01-06T10:59:09;7.50;;;4.43;;
1272;SDS011;629;48.632;10.230;2023-01-06T11:01:46;4.13;;;3.70;;
1272;SDS011;629;48.632;10.230;2023-01-06T11:04:14;4.00;;;3.60;;
1272;SDS011;629;48.632;10.230;2023-01-06T11:06:43;3.90;;;3.23;;
1272;SDS011;629;48.632;10.230;2023-01-06T11:09:28;4.10;;;3.40;;
1272;SDS011;629;48.632;10.230;2023-01-06T11:11:59;3.90;;;3.50;;
1272;SDS011;629;48.632;10.230;2023-01-06T11:14:34;4.13;;;3.43;;
1272;SDS011;629;48.632;10.230;2023-01-06T11:17:02;4.97;;;3.70;;
1272;SDS011;629;48.632;10.230;2023-01-06T11:19:35;3.80;;;3.40;;
1272;SDS011;629;48.632;10.230;2023-01-06T11:22:03;4.13;;;3.47;;
1272;SDS011;629;48.632;10.230;2023-01-06T11:24:31;4.47;;;3.80;;
1272;SDS011;629;48.632;10.230;2023-01-06T11:27:00;6.10;;;4.33;;
1272;SDS011;629;48.632;10.230;2023-01-06T11:29:38;3.87;;;3.27;;
1272;SDS011;629;48.632;10.230;2023-01-06T11:32:11;4.10;;;3.67;;
1272;SDS011;629;48.632;10.230;2023-01-06T11:37:08;5.17;;;4.67;;
1272;SDS011;629;48.632;10.230;2023-01-06T11:39:35;5.27;;;4.47;;
1272;SDS011;629;48.632;10.230;2023-01-06T11:42:07;4.70;;;4.30;;
1272;SDS011;629;48.632;10.230;2023-01-06T11:44:38;4.50;;;4.03;;
1272;SDS011;629;48.632;10.230;2023-01-06T11:47:07;4.10;;;3.70;;
1272;SDS011;629;48.632;10.230;2023-01-06T11:49:40;5.23;;;4.60;;
1272;SDS011;629;48.632;10.230;2023-01-06T11:52:17;4.37;;;3.80;;
1272;SDS011;629;48.632;10.230;2023-01-06T12:00:00;4.93;;;4.43;;
1272;SDS011;629;48.632;10.230;2023-01-06T12:02:40;5.63;;;4.50;;
1272;SDS011;629;48.632;10.230;2023-01-06T12:05:17;4.20;;;3.80;;
1272;SDS011;629;48.632;10.230;2023-01-06T12:07:51;4.03;;;3.50;;
1272;SDS011;629;48.632;10.230;2023-01-06T12:10:21;5.30;;;4.23;;
1272;SDS011;629;48.632;10.230;2023-01-06T12:12:50;5.63;;;4.70;;
1272;SDS011;629;48.632;10.230;2023-01-06T12:15:19;5.47;;;4.57;;
1272;SDS011;629;48.632;10.230;2023-01-06T12:17:48;4.93;;;4.53;;
1272;SDS011;629;48.632;10.230;2023-01-06T12:20:18;4.50;;;4.10;;
1272;SDS011;629;48.632;10.230;2023-01-06T12:22:49;4.77;;;4.27;;
1272;SDS011;629;48.632;10.230;2023-01-06T12:38:16;6.37;;;5.17;;
1272;SDS011;629;48.632;10.230;2023-01-06T12:40:59;4.37;;;3.97;;
1272;SDS011;629;48.632;10.230;2023-01-06T12:43:32;4.60;;;3.90;;
1272;SDS011;629;48.632;10.230;2023-01-06T12:46:03;4.43;;;4.03;;
1272;SDS011;629;48.632;10.230;2023-01-06T12:48:35;4.90;;;3.77;;
1272;SDS011;629;48.632;10.230;2023-01-06T12:51:08;3.63;;;3.33;;
1272;SDS011;629;48.632;10.230;2023-01-06T12:53:44;4.27;;;3.73;;
1272;SDS011;629;48.632;10.230;2023-01-06T12:56:24;4.37;;;3.80;;
1272;SDS011;629;48.632;10.230;2023-01-06T12:59:11;3.90;;;3.47;;
1272;SDS011;629;48.632;10.230;2023-01-06T13:01:44;3.90;;;3.23;;
1272;SDS011;629;48.632;10.230;2023-01-06T13:06:51;4.40;;;3.97;;
1272;SDS011;629;48.632;10.230;2023-01-06T13:09:34;4.87;;;3.77;;
1272;SDS011;629;48.632;10.230;2023-01-06T13:12:16;4.87;;;4.40;;
1272;SDS011;629;48.632;10.230;2023-01-06T13:14:56;3.60;;;3.30;;
1272;SDS011;629;48.632;10.230;2023-01-06T13:17:27;4.23;;;3.83;;
1272;SDS011;629;48.632;10.230;2023-01-06T13:19:59;4.23;;;3.80;;
1272;SDS011;629;48.632;10.230;2023-01-06T13:22:32;4.73;;;4.23;;
1272;SDS011;629;48.632;10.230;2023-01-06T13:25:13;5.70;;;4.33;;
1272;SDS011;629;48.632;10.230;2023-01-06T13:27:53;4.77;;;4.17;;
1272;SDS011;629;48.632;10.230;2023-01-06T13:30:49;4.57;;;4.13;;
1272;SDS011;629;48.632;10.230;2023-01-06T13:36:20;6.00;;;4.60;;
1272;SDS011;629;48.632;10.230;2023-01-06T13:39:08;4.60;;;4.10;;
1272;SDS011;629;48.632;10.230;2023-01-06T13:41:42;5.80;;;4.70;;
1272;SDS011;629;48.632;10.230;2023-01-06T13:49:23;5.83;;;4.50;;
1272;SDS011;629;48.632;10.230;2023-01-06T13:51:52;5.43;;;4.67;;
1272;SDS011;629;48.632;10.230;2023-01-06T13:57:27;5.80;;;4.70;;
1272;SDS011;629;48.632;10.230;2023-01-06T14:00:15;5.20;;;4.70;;
1272;SDS011;629;48.632;10.230;2023-01-06T14:02:58;6.43;;;4.80;;
1272;SDS011;629;48.632;10.230;2023-01-06T14:05:50;5.63;;;4.90;;
1272;SDS011;629;48.632;10.230;2023-01-06T14:08:19;5.07;;;4.43;;
1272;SDS011;629;48.632;10.230;2023-01-06T14:10:53;5.53;;;4.90;;
1272;SDS011;629;48.632;10.230;2023-01-06T14:15:55;6.43;;;5.03;;
1272;SDS011;629;48.632;10.230;2023-01-06T14:21:16;5.40;;;4.90;;
1272;SDS011;629;48.632;10.230;2023-01-06T14:28:50;5.20;;;4.70;;
1272;SDS011;629;48.632;10.230;2023-01-06T14:34:04;4.70;;;4.23;;
1272;SDS011;629;48.632;10.230;2023-01-06T14:36:36;5.47;;;4.30;;
1272;SDS011;629;48.632;10.230;2023-01-06T14:39:05;5.20;;;4.70;;
1272;SDS011;629;48.632;10.230;2023-01-06T14:41:36;4.50;;;4.10;;
1272;SDS011;629;48.632;10.230;2023-01-06T14:44:10;4.47;;;4.07;;
1272;SDS011;629;48.632;10.230;2023-01-06T14:46:40;4.47;;;4.00;;
1272;SDS011;629;48.632;10.230;2023-01-06T14:49:13;4.57;;;3.20;;
1272;SDS011;629;48.632;10.230;2023-01-06T14:51:43;4.30;;;3.57;;
1272;SDS011;629;48.632;10.230;2023-01-06T14:54:14;4.20;;;3.40;;
1272;SDS011;629;48.632;10.230;2023-01-06T14:56:51;5.60;;;4.60;;
1272;SDS011;629;48.632;10.230;2023-01-06T14:59:18;6.20;;;3.80;;
1272;SDS011;629;48.632;10.230;2023-01-06T15:01:54;3.67;;;3.30;;
1272;SDS011;629;48.632;10.230;2023-01-06T15:04:26;4.17;;;3.63;;
1272;SDS011;629;48.632;10.230;2023-01-06T15:06:59;3.90;;;3.00;;
1272;SDS011;629;48.632;10.230;2023-01-06T15:09:29;3.10;;;2.80;;
1272;SDS011;629;48.632;10.230;2023-01-06T15:11:57;2.60;;;2.40;;
1272;SDS011;629;48.632;10.230;2023-01-06T15:19:33;2.77;;;2.27;;
1272;SDS011;629;48.632;10.230;2023-01-06T15:22:04;2.77;;;2.23;;
1272;SDS011;629;48.632;10.230;2023-01-06T15:24:32;3.07;;;2.67;;
1272;SDS011;629;48.632;10.230;2023-01-06T15:27:03;2.90;;;2.60;;
1272;SDS011;629;48.632;10.230;2023-01-06T15:29:32;3.40;;;2.60;;
1272;SDS011;629;48.632;10.230;2023-01-06T15:31:59;2.97;;;2.33;;
1272;SDS011;629;48.632;10.230;2023-01-06T15:39:39;2.80;;;2.60;;
1272;SDS011;629;48.632;10.230;2023-01-06T15:42:07;3.77;;;2.73;;
1272;SDS011;629;48.632;10.230;2023-01-06T15:44:37;2.80;;;2.50;;
1272;SDS011;629;48.632;10.230;2023-01-06T15:47:15;3.97;;;2.50;;
1272;SDS011;629;48.632;10.230;2023-01-06T15:49:48;4.00;;;2.43;;
1272;SDS011;629;48.632;10.230;2023-01-06T15:52:21;2.77;;;2.47;;
1272;SDS011;629;48.632;10.230;2023-01-06T15:57:27;2.70;;;2.50;;
1272;SDS011;629;48.632;10.230;2023-01-06T15:59:58;3.33;;;2.60;;
1272;SDS011;629;48.632;10.230;2023-01-06T16:02:28;2.70;;;2.50;;
1272;SDS011;629;48.632;10.230;2023-01-06T16:09:59;2.57;;;1.17;;
1272;SDS011;629;48.632;10.230;2023-01-06T16:12:28;3.63;;;1.30;;
1272;SDS011;629;48.632;10.230;2023-01-06T16:18:09;3.17;;;2.80;;
1272;SDS011;629;48.632;10.230;2023-01-06T16:20:37;4.43;;;3.70;;
1272;SDS011;629;48.632;10.230;2023-01-06T16:23:04;5.20;;;3.97;;
1272;SDS011;629;48.632;10.230;2023-01-06T16:25:31;4.20;;;3.23;;
1272;SDS011;629;48.632;10.230;2023-01-06T16:28:02;4.77;;;4.37;;
1272;SDS011;629;48.632;10.230;2023-01-06T16:30:30;4.00;;;3.40;;
1272;SDS011;629;48.632;10.230;2023-01-06T16:33:00;4.40;;;3.90;;
1272;SDS011;629;48.632;10.230;2023-01-06T16:35:28;3.93;;;2.30;;
1272;SDS011;629;48.632;10.230;2023-01-06T16:37:57;2.53;;;2.30;;
1272;SDS011;629;48.632;10.230;2023-01-06T16:40:25;4.33;;;3.70;;
1272;SDS011;629;48.632;10.230;2023-01-06T16:42:55;6.40;;;4.87;;
1272;SDS011;629;48.632;10.230;2023-01-06T16:45:25;3.80;;;3.00;;
1272;SDS011;629;48.632;10.230;2023-01-06T16:47:57;4.13;;;3.30;;
1272;SDS011;629;48.632;10.230;2023-01-06T16:50:25;2.20;;;1.80;;
1272;SDS011;629;48.632;10.230;2023-01-06T16:53:02;2.07;;;1.60;;
1272;SDS011;629;48.632;10.230;2023-01-06T16:58:12;1.47;;;1.30;;
1272;SDS011;629;48.632;10.230;2023-01-06T17:00:43;1.80;;;1.57;;
1272;SDS011;629;48.632;10.230;2023-01-06T17:05:49;2.50;;;1.40;;
1272;SDS011;629;48.632;10.230;2023-01-06T17:08:16;1.30;;;1.20;;
1272;SDS011;629;48.632;10.230;2023-01-06T17:10:49;2.70;;;1.80;;
1272;SDS011;629;48.632;10.230;2023-01-06T17:13:18;1.87;;;1.50;;
1272;SDS011;629;48.632;10.230;2023-01-06T17:16:14;2.50;;;1.80;;
1272;SDS011;629;48.632;10.230;2023-01-06T17:18:52;2.47;;;1.77;;
1272;SDS011;629;48.632;10.230;2023-01-06T17:21:21;2.80;;;1.90;;
1272;SDS011;629;48.632;10.230;2023-01-06T17:26:46;2.57;;;2.27;;
1272;SDS011;629;48.632;10.230;2023-01-06T17:29:23;3.77;;;2.20;;
1272;SDS011;629;48.632;10.230;2023-01-06T17:31:55;2.23;;;1.90;;
1272;SDS011;629;48.632;10.230;2023-01-06T17:34:37;2.13;;;1.63;;
1272;SDS011;629;48.632;10.230;2023-01-06T17:37:06;2.30;;;1.80;;
1272;SDS011;629;48.632;10.230;2023-01-06T17:39:38;1.87;;;1.77;;
1272;SDS011;629;48.632;10.230;2023-01-06T17:42:21;1.90;;;1.80;;
1272;SDS011;629;48.632;10.230;2023-01-06T17:44:51;1.70;;;1.40;;
1272;SDS011;629;48.632;10.230;2023-01-06T17:47:26;1.67;;;1.57;;
1272;SDS011;629;48.632;10.230;2023-01-06T17:49:54;1.77;;;1.50;;
1272;SDS011;629;48.632;10.230;2023-01-06T17:52:23;2.03;;;1.60;;
1272;SDS011;629;48.632;10.230;2023-01-06T17:57:24;2.37;;;1.50;;
1272;SDS011;629;48.632;10.230;2023-01-06T17:59:52;1.50;;;1.40;;
1272;SDS011;629;48.632;10.230;2023-01-06T18:02:28;1.37;;;1.27;;
1272;SDS011;629;48.632;10.230;2023-01-06T18:07:37;1.57;;;1.47;;
1272;SDS011;629;48.632;10.230;2023-01-06T18:10:07;2.00;;;1.80;;
1272;SDS011;629;48.632;10.230;2023-01-06T18:12:38;2.60;;;1.87;;
1272;SDS011;629;48.632;10.230;2023-01-06T18:15:17;2.03;;;1.60;;
1272;SDS011;629;48.632;10.230;2023-01-06T18:17:56;3.47;;;1.80;;
1272;SDS011;629;48.632;10.230;2023-01-06T18:20:27;1.83;;;1.50;;
1272;SDS011;629;48.632;10.230;2023-01-06T18:22:54;2.87;;;2.50;;
1272;SDS011;629;48.632;10.230;2023-01-06T18:25:22;3.83;;;2.80;;
1272;SDS011;629;48.632;10.230;2023-01-06T18:27:51;2.53;;;2.17;;
1272;SDS011;629;48.632;10.230;2023-01-06T18:30:20;2.13;;;1.90;;
1272;SDS011;629;48.632;10.230;2023-01-06T18:32:49;2.30;;;1.80;;
1272;SDS011;629;48.632;10.230;2023-01-06T18:35:18;2.60;;;1.70;;
1272;SDS011;629;48.632;10.230;2023-01-06T18:37:47;1.77;;;1.30;;
1272;SDS011;629;48.632;10.230;2023-01-06T18:40:15;3.00;;;2.10;;
1272;SDS011;629;48.632;10.230;2023-01-06T18:42:44;3.30;;;2.30;;
1272;SDS011;629;48.632;10.230;2023-01-06T18:45:14;4.47;;;3.27;;
1272;SDS011;629;48.632;10.230;2023-01-06T18:47:48;2.00;;;1.80;;
1272;SDS011;629;48.632;10.230;2023-01-06T18:50:32;3.63;;;1.30;;
1272;SDS011;629;48.632;10.230;2023-01-06T18:53:02;1.20;;;1.10;;
1272;SDS011;629;48.632;10.230;2023-01-06T18:55:34;1.30;;;1.20;;
1272;SDS011;629;48.632;10.230;2023-01-06T18:58:06;2.50;;;1.47;;
1272;SDS011;629;48.632;10.230;2023-01-06T19:00:44;2.00;;;1.20;;
1272;SDS011;629;48.632;10.230;2023-01-06T19:03:18;1.57;;;1.47;;
1272;SDS011;629;48.632;10.230;2023-01-06T19:08:59;5.53;;;5.03;;
1272;SDS011;629;48.632;10.230;2023-01-06T19:11:27;4.30;;;3.90;;
1272;SDS011;629;48.632;10.230;2023-01-06T19:13:57;8.63;;;7.70;;
1272;SDS011;629;48.632;10.230;2023-01-06T19:16:27;8.67;;;7.70;;
1272;SDS011;629;48.632;10.230;2023-01-06T19:18:58;9.60;;;8.20;;
1272;SDS011;629;48.632;10.230;2023-01-06T19:21:42;14.00;;;11.20;;
1272;SDS011;629;48.632;10.230;2023-01-06T19:27:01;5.83;;;5.23;;
1272;SDS011;629;48.632;10.230;2023-01-06T19:29:30;7.87;;;6.10;;
1272;SDS011;629;48.632;10.230;2023-01-06T19:31:59;5.20;;;3.97;;
1272;SDS011;629;48.632;10.230;2023-01-06T19:34:30;3.83;;;3.53;;
1272;SDS011;629;48.632;10.230;2023-01-06T19:36:57;4.40;;;4.00;;
1272;SDS011;629;48.632;10.230;2023-01-06T19:39:25;6.83;;;6.13;;
1272;SDS011;629;48.632;10.230;2023-01-06T19:41:58;6.77;;;6.17;;
1272;SDS011;629;48.632;10.230;2023-01-06T19:44:36;5.03;;;4.63;;
1272;SDS011;629;48.632;10.230;2023-01-06T19:47:09;7.30;;;5.67;;
1272;SDS011;629;48.632;10.230;2023-01-06T19:49:41;7.00;;;6.20;;
1272;SDS011;629;48.632;10.230;2023-01-06T19:52:16;8.37;;;7.53;;
1272;SDS011;629;48.632;10.230;2023-01-06T19:54:56;11.03;;;7.97;;
1272;SDS011;629;48.632;10.230;2023-01-06T19:57:42;10.10;;;7.80;;
1272;SDS011;629;48.632;10.230;2023-01-06T20:00:22;8.77;;;7.87;;
1272;SDS011;629;48.632;10.230;2023-01-06T20:02:51;8.53;;;7.63;;
1272;SDS011;629;48.632;10.230;2023-01-06T20:05:21;10.97;;;9.87;;
1272;SDS011;629;48.632;10.230;2023-01-06T20:07:48;45.13;;;40.33;;
1272;SDS011;629;48.632;10.230;2023-01-06T20:10:15;21.63;;;18.17;;
1272;SDS011;629;48.632;10.230;2023-01-06T20:12:44;21.70;;;16.97;;
1272;SDS011;629;48.632;10.230;2023-01-06T20:15:11;12.43;;;11.13;;
1272;SDS011;629;48.632;10.230;2023-01-06T20:17:38;10.30;;;9.30;;
1272;SDS011;629;48.632;10.230;2023-01-06T20:20:05;10.73;;;9.63;;
1272;SDS011;629;48.632;10.230;2023-01-06T20:22:33;11.30;;;9.07;;
1272;SDS011;629;48.632;10.230;2023-01-06T20:30:12;11.90;;;9.80;;
1272;SDS011;629;48.632;10.230;2023-01-06T20:32:39;10.73;;;8.30;;
1272;SDS011;629;48.632;10.230;2023-01-06T21:29:29;9.67;;;8.30;;
1272;SDS011;629;48.632;10.230;2023-01-06T21:31:56;8.77;;;7.87;;
1272;SDS011;629;48.632;10.230;2023-01-06T21:55:07;8.00;;;7.20;;
1272;SDS011;629;48.632;10.230;2023-01-06T21:57:34;8.77;;;7.97;;
1272;SDS011;629;48.632;10.230;2023-01-06T22:00:02;8.13;;;7.20;;
1272;SDS011;629;48.632;10.230;2023-01-06T22:02:29;7.33;;;6.63;;
1272;SDS011;629;48.632;10.230;2023-01-06T22:04:56;8.20;;;7.40;;
1272;SDS011;629;48.632;10.230;2023-01-06T22:07:23;10.00;;;7.77;;
1272;SDS011;629;48.632;10.230;2023-01-06T22:09:51;9.13;;;8.07;;
1272;SDS011;629;48.632;10.230;2023-01-06T22:12:20;8.83;;;7.93;;
1272;SDS011;629;48.632;10.230;2023-01-06T22:14:48;9.30;;;7.77;;
1272;SDS011;629;48.632;10.230;2023-01-06T22:17:17;9.43;;;7.83;;
1272;SDS011;629;48.632;10.230;2023-01-06T22:19:45;10.67;;;9.67;;
1272;SDS011;629;48.632;10.230;2023-01-06T22:22:12;8.70;;;7.67;;
1272;SDS011;629;48.632;10.230;2023-01-06T22:27:15;9.60;;;8.60;;
1272;SDS011;629;48.632;10.230;2023-01-06T22:29:43;9.33;;;8.47;;
1272;SDS011;629;48.632;10.230;2023-01-06T22:32:10;9.37;;;7.90;;
1272;SDS011;629;48.632;10.230;2023-01-06T22:37:10;9.53;;;8.57;;
1272;SDS011;629;48.632;10.230;2023-01-06T22:39:37;13.90;;;7.93;;
1272;SDS011;629;48.632;10.230;2023-01-06T22:42:04;8.67;;;7.73;;
1272;SDS011;629;48.632;10.230;2023-01-06T22:49:43;9.10;;;7.47;;
1272;SDS011;629;48.632;10.230;2023-01-06T22:52:10;8.83;;;7.90;;
1272;SDS011;629;48.632;10.230;2023-01-06T22:54:37;7.63;;;6.93;;
1272;SDS011;629;48.632;10.230;2023-01-06T22:57:04;8.30;;;7.50;;
1272;SDS011;629;48.632;10.230;2023-01-06T22:59:31;7.57;;;6.87;;
1272;SDS011;629;48.632;10.230;2023-01-06T23:01:58;7.83;;;7.13;;
1272;SDS011;629;48.632;10.230;2023-01-06T23:12:12;8.33;;;7.50;;
1272;SDS011;629;48.632;10.230;2023-01-06T23:22:25;7.30;;;6.60;;
1272;SDS011;629;48.632;10.230;2023-01-06T23:32:39;8.90;;;7.23;;
1272;SDS011;629;48.632;10.230;2023-01-06T23:35:06;9.27;;;8.30;;
1272;SDS011;629;48.632;10.230;2023-01-06T23:37:34;11.07;;;9.43;;
1272;SDS011;629;48.632;10.230;2023-01-06T23:40:00;11.83;;;10.63;;
1272;SDS011;629;48.632;10.230;2023-01-06T23:42:27;10.73;;;9.70;;
1272;SDS011;629;48.632;10.230;2023-01-06T23:52:34;10.67;;;9.40;;
